sensor_id;sensor_type;location;lat;lon;timestamp;pressure;altitude;pressure_sealevel;temperature;humidity
79198;BME280;68628;48.714;9.472;2023-06-19T00:02:21;97662.28;;;22.24;49.96
79198;BME280;68628;48.714;9.472;2023-06-19T00:04:47;97663.63;;;22.26;49.15
79198;BME280;68628;48.714;9.472;2023-06-19T00:07:13;97662.03;;;22.25;50.27
79198;BME280;68628;48.714;9.472;2023-06-19T00:09:38;97668.72;;;22.18;50.76
79198;BME280;68628;48.714;9.472;2023-06-19T00:12:04;97664.16;;;22.18;50.73
79198;BME280;68628;48.714;9.472;2023-06-19T00:14:30;97669.53;;;22.23;50.77
79198;BME280;68628;48.714;9.472;2023-06-19T00:16:56;97661.19;;;22.14;51.20
79198;BME280;68628;48.714;9.472;2023-06-19T00:19:22;97659.34;;;22.15;50.79
79198;BME280;68628;48.714;9.472;2023-06-19T00:21:48;97663.88;;;22.04;51.05
79198;BME280;68628;48.714;9.472;2023-06-19T00:24:14;97662.00;;;22.15;50.68
79198;BME280;68628;48.714;9.472;2023-06-19T00:26:40;97654.50;;;22.17;50.51
79198;BME280;68628;48.714;9.472;2023-06-19T00:29:20;97665.47;;;22.10;51.29
79198;BME280;68628;48.714;9.472;2023-06-19T00:32:12;97658.19;;;21.95;51.50
79198;BME280;68628;48.714;9.472;2023-06-19T00:34:45;97656.59;;;22.05;51.52
79198;BME280;68628;48.714;9.472;2023-06-19T00:37:26;97657.06;;;21.81;51.54
79198;BME280;68628;48.714;9.472;2023-06-19T00:40:40;97659.75;;;21.86;52.00
79198;BME280;68628;48.714;9.472;2023-06-19T00:43:36;97656.25;;;21.80;52.28
79198;BME280;68628;48.714;9.472;2023-06-19T00:46:24;97657.06;;;21.81;52.07
79198;BME280;68628;48.714;9.472;2023-06-19T00:48:50;97659.19;;;21.74;52.64
79198;BME280;68628;48.714;9.472;2023-06-19T00:51:35;97668.19;;;21.57;52.53
79198;BME280;68628;48.714;9.472;2023-06-19T00:54:02;97673.56;;;21.57;53.19
79198;BME280;68628;48.714;9.472;2023-06-19T00:56:37;97674.38;;;21.58;52.87
79198;BME280;68628;48.714;9.472;2023-06-19T00:59:16;97682.59;;;21.46;53.59
79198;BME280;68628;48.714;9.472;2023-06-19T01:01:44;97676.97;;;21.47;52.98
79198;BME280;68628;48.714;9.472;2023-06-19T01:04:13;97683.06;;;21.38;53.36
79198;BME280;68628;48.714;9.472;2023-06-19T01:06:53;97688.19;;;21.39;53.55
79198;BME280;68628;48.714;9.472;2023-06-19T01:09:29;97688.06;;;21.24;53.77
79198;BME280;68628;48.714;9.472;2023-06-19T01:12:06;97683.28;;;21.31;53.38
79198;BME280;68628;48.714;9.472;2023-06-19T01:14:39;97679.19;;;21.23;54.06
79198;BME280;68628;48.714;9.472;2023-06-19T01:17:14;97690.22;;;21.27;53.95
79198;BME280;68628;48.714;9.472;2023-06-19T01:19:40;97693.50;;;21.34;53.69
79198;BME280;68628;48.714;9.472;2023-06-19T01:22:06;97688.94;;;21.35;54.49
79198;BME280;68628;48.714;9.472;2023-06-19T01:24:32;97694.31;;;21.35;54.37
79198;BME280;68628;48.714;9.472;2023-06-19T01:26:58;97694.75;;;21.21;55.17
79198;BME280;68628;48.714;9.472;2023-06-19T01:29:23;97697.47;;;21.26;54.81
79198;BME280;68628;48.714;9.472;2023-06-19T01:34:42;97700.69;;;21.28;55.28
79198;BME280;68628;48.714;9.472;2023-06-19T01:37:10;97711.47;;;21.39;54.61
79198;BME280;68628;48.714;9.472;2023-06-19T01:39:39;97717.44;;;21.46;54.12
79198;BME280;68628;48.714;9.472;2023-06-19T01:42:09;97711.47;;;21.39;54.01
79198;BME280;68628;48.714;9.472;2023-06-19T01:44:36;97717.09;;;21.37;54.61
79198;BME280;68628;48.714;9.472;2023-06-19T01:47:10;97727.59;;;21.44;53.65
79198;BME280;68628;48.714;9.472;2023-06-19T01:49:37;97748.16;;;21.33;54.77
79198;BME280;68628;48.714;9.472;2023-06-19T01:52:04;97745.09;;;21.19;54.81
79198;BME280;68628;48.714;9.472;2023-06-19T01:54:32;97744.88;;;21.26;54.57
79198;BME280;68628;48.714;9.472;2023-06-19T01:56:58;97751.06;;;21.26;54.42
79198;BME280;68628;48.714;9.472;2023-06-19T01:59:24;97751.81;;;21.22;54.96
79198;BME280;68628;48.714;9.472;2023-06-19T02:01:50;97764.56;;;20.82;55.26
79198;BME280;68628;48.714;9.472;2023-06-19T02:04:19;97770.25;;;20.86;55.49
79198;BME280;68628;48.714;9.472;2023-06-19T02:06:45;97755.78;;;20.87;55.99
79198;BME280;68628;48.714;9.472;2023-06-19T02:09:11;97761.00;;;20.99;55.20
79198;BME280;68628;48.714;9.472;2023-06-19T02:11:37;97761.69;;;20.89;55.12
79198;BME280;68628;48.714;9.472;2023-06-19T02:14:03;97772.50;;;20.99;54.70
79198;BME280;68628;48.714;9.472;2023-06-19T02:16:31;97777.53;;;20.90;54.74
79198;BME280;68628;48.714;9.472;2023-06-19T02:19:00;97766.84;;;20.95;54.66
79198;BME280;68628;48.714;9.472;2023-06-19T02:21:26;97766.84;;;20.95;54.79
79198;BME280;68628;48.714;9.472;2023-06-19T02:23:54;97765.25;;;20.94;54.71
79198;BME280;68628;48.714;9.472;2023-06-19T02:26:23;97771.91;;;20.92;55.26
79198;BME280;68628;48.714;9.472;2023-06-19T02:28:49;97753.44;;;20.95;54.71
79198;BME280;68628;48.714;9.472;2023-06-19T02:31:15;97755.69;;;21.04;55.10
79198;BME280;68628;48.714;9.472;2023-06-19T02:33:41;97756.75;;;21.03;54.01
79198;BME280;68628;48.714;9.472;2023-06-19T02:36:06;97762.69;;;21.10;54.27
79198;BME280;68628;48.714;9.472;2023-06-19T02:38:36;97776.41;;;20.86;55.45
79198;BME280;68628;48.714;9.472;2023-06-19T02:41:02;97778.63;;;20.94;55.37
79198;BME280;68628;48.714;9.472;2023-06-19T02:43:28;97771.34;;;20.90;55.44
79198;BME280;68628;48.714;9.472;2023-06-19T02:45:54;97778.88;;;20.93;55.59
79198;BME280;68628;48.714;9.472;2023-06-19T02:48:22;97764.69;;;20.92;55.17
79198;BME280;68628;48.714;9.472;2023-06-19T02:50:48;97766.63;;;20.97;54.64
79198;BME280;68628;48.714;9.472;2023-06-19T02:53:15;97764.16;;;20.95;55.12
79198;BME280;68628;48.714;9.472;2023-06-19T02:55:42;97772.72;;;20.92;55.55
79198;BME280;68628;48.714;9.472;2023-06-19T02:58:07;97773.03;;;20.96;55.23
79198;BME280;68628;48.714;9.472;2023-06-19T03:00:33;97779.13;;;20.91;55.49
79198;BME280;68628;48.714;9.472;2023-06-19T03:02:58;97785.06;;;20.93;55.77
79198;BME280;68628;48.714;9.472;2023-06-19T03:05:24;97782.00;;;20.85;56.19
79198;BME280;68628;48.714;9.472;2023-06-19T03:07:52;97787.88;;;20.82;56.71
79198;BME280;68628;48.714;9.472;2023-06-19T03:10:18;97791.34;;;20.82;56.93
79198;BME280;68628;48.714;9.472;2023-06-19T03:12:43;97795.19;;;20.91;56.01
79198;BME280;68628;48.714;9.472;2023-06-19T03:15:09;97794.09;;;20.87;55.83
79198;BME280;68628;48.714;9.472;2023-06-19T03:17:35;97792.25;;;20.93;55.67
79198;BME280;68628;48.714;9.472;2023-06-19T03:20:01;97791.50;;;20.97;55.65
79198;BME280;68628;48.714;9.472;2023-06-19T03:22:27;97797.97;;;21.02;55.34
79198;BME280;68628;48.714;9.472;2023-06-19T03:24:53;97808.31;;;20.93;55.73
79198;BME280;68628;48.714;9.472;2023-06-19T03:27:18;97812.81;;;20.87;56.55
79198;BME280;68628;48.714;9.472;2023-06-19T03:29:44;97809.25;;;21.04;55.77
79198;BME280;68628;48.714;9.472;2023-06-19T03:32:09;97815.22;;;21.11;55.04
79198;BME280;68628;48.714;9.472;2023-06-19T03:34:35;97814.31;;;21.27;54.69
79198;BME280;68628;48.714;9.472;2023-06-19T03:37:01;97821.22;;;21.23;54.77
79198;BME280;68628;48.714;9.472;2023-06-19T03:39:26;97812.63;;;21.21;54.96
79198;BME280;68628;48.714;9.472;2023-06-19T03:41:52;97819.56;;;21.17;55.42
79198;BME280;68628;48.714;9.472;2023-06-19T03:44:18;97819.56;;;21.17;55.96
79198;BME280;68628;48.714;9.472;2023-06-19T03:46:43;97816.56;;;21.13;55.80
79198;BME280;68628;48.714;9.472;2023-06-19T03:49:09;97811.53;;;21.17;56.12
79198;BME280;68628;48.714;9.472;2023-06-19T03:51:35;97817.84;;;21.06;56.71
79198;BME280;68628;48.714;9.472;2023-06-19T03:54:11;97812.06;;;21.19;56.05
79198;BME280;68628;48.714;9.472;2023-06-19T03:57:50;97818.47;;;21.13;56.16
79198;BME280;68628;48.714;9.472;2023-06-19T04:00:36;97827.56;;;21.12;56.39
79198;BME280;68628;48.714;9.472;2023-06-19T04:03:49;97831.91;;;21.18;55.82
79198;BME280;68628;48.714;9.472;2023-06-19T04:06:21;97831.75;;;21.30;55.83
79198;BME280;68628;48.714;9.472;2023-06-19T04:08:53;97828.81;;;21.32;55.81
79198;BME280;68628;48.714;9.472;2023-06-19T04:11:28;97838.16;;;21.29;55.95
79198;BME280;68628;48.714;9.472;2023-06-19T04:13:56;97833.84;;;21.28;56.71
79198;BME280;68628;48.714;9.472;2023-06-19T04:19:50;97849.81;;;21.45;56.28
79198;BME280;68628;48.714;9.472;2023-06-19T04:22:56;97851.31;;;21.58;56.05
79198;BME280;68628;48.714;9.472;2023-06-19T04:25:45;97847.00;;;21.57;55.26
79198;BME280;68628;48.714;9.472;2023-06-19T04:29:10;97855.63;;;21.64;54.80
79198;BME280;68628;48.714;9.472;2023-06-19T04:35:47;97851.47;;;21.78;54.52
79198;BME280;68628;48.714;9.472;2023-06-19T04:38:22;97849.06;;;21.82;54.43
79198;BME280;68628;48.714;9.472;2023-06-19T04:40:55;97857.66;;;21.79;54.39
79198;BME280;68628;48.714;9.472;2023-06-19T04:43:49;97849.41;;;21.91;54.67
79198;BME280;68628;48.714;9.472;2023-06-19T04:46:17;97852.81;;;21.81;54.74
79198;BME280;68628;48.714;9.472;2023-06-19T04:48:46;97846.69;;;21.86;54.34
79198;BME280;68628;48.714;9.472;2023-06-19T04:51:28;97850.41;;;21.79;55.27
79198;BME280;68628;48.714;9.472;2023-06-19T04:54:02;97840.50;;;21.85;54.89
79198;BME280;68628;48.714;9.472;2023-06-19T04:56:28;97853.44;;;21.88;54.22
79198;BME280;68628;48.714;9.472;2023-06-19T04:58:59;97847.97;;;21.78;55.07
79198;BME280;68628;48.714;9.472;2023-06-19T05:01:28;97851.66;;;22.04;54.29
79198;BME280;68628;48.714;9.472;2023-06-19T05:06:23;97848.59;;;21.90;54.91
79198;BME280;68628;48.714;9.472;2023-06-19T05:08:48;97843.41;;;21.78;55.43
79198;BME280;68628;48.714;9.472;2023-06-19T05:11:14;97852.47;;;21.67;55.42
79198;BME280;68628;48.714;9.472;2023-06-19T05:13:40;97861.91;;;21.47;56.18
79198;BME280;68628;48.714;9.472;2023-06-19T05:16:06;97866.44;;;21.47;56.11
79198;BME280;68628;48.714;9.472;2023-06-19T05:18:33;97860.72;;;21.60;56.07
79198;BME280;68628;48.714;9.472;2023-06-19T05:20:59;97857.91;;;21.83;56.28
79198;BME280;68628;48.714;9.472;2023-06-19T05:23:25;97874.19;;;22.03;55.03
79198;BME280;68628;48.714;9.472;2023-06-19T05:25:51;97876.91;;;22.08;55.52
79198;BME280;68628;48.714;9.472;2023-06-19T05:28:22;97868.34;;;22.17;55.05
79198;BME280;68628;48.714;9.472;2023-06-19T05:30:55;97870.28;;;22.26;55.04
79198;BME280;68628;48.714;9.472;2023-06-19T05:33:32;97866.56;;;22.33;54.66
79198;BME280;68628;48.714;9.472;2023-06-19T05:35:57;97864.28;;;22.57;53.59
79198;BME280;68628;48.714;9.472;2023-06-19T05:38:26;97862.88;;;22.39;54.56
79198;BME280;68628;48.714;9.472;2023-06-19T05:41:03;97871.00;;;22.59;53.92
79198;BME280;68628;48.714;9.472;2023-06-19T05:43:36;97872.16;;;22.26;54.08
79198;BME280;68628;48.714;9.472;2023-06-19T05:46:04;97868.72;;;22.30;54.68
79198;BME280;68628;48.714;9.472;2023-06-19T05:48:30;97878.97;;;22.39;54.34
79198;BME280;68628;48.714;9.472;2023-06-19T05:50:56;97875.81;;;22.47;54.16
79198;BME280;68628;48.714;9.472;2023-06-19T05:53:22;97875.78;;;22.42;54.32
79198;BME280;68628;48.714;9.472;2023-06-19T05:55:47;97877.69;;;22.46;54.18
79198;BME280;68628;48.714;9.472;2023-06-19T05:58:13;97877.69;;;22.52;54.13
79198;BME280;68628;48.714;9.472;2023-06-19T06:00:39;97882.22;;;22.46;54.68
79198;BME280;68628;48.714;9.472;2023-06-19T06:03:04;97883.19;;;22.29;53.97
79198;BME280;68628;48.714;9.472;2023-06-19T06:05:30;97898.84;;;22.05;54.58
79198;BME280;68628;48.714;9.472;2023-06-19T06:07:56;97901.91;;;22.19;54.64
79198;BME280;68628;48.714;9.472;2023-06-19T06:10:30;97899.81;;;22.26;55.23
79198;BME280;68628;48.714;9.472;2023-06-19T06:12:56;97888.94;;;22.43;53.97
79198;BME280;68628;48.714;9.472;2023-06-19T06:15:22;97899.94;;;22.42;53.89
79198;BME280;68628;48.714;9.472;2023-06-19T06:17:48;97895.97;;;22.55;54.07
79198;BME280;68628;48.714;9.472;2023-06-19T06:20:14;97896.81;;;22.60;53.63
79198;BME280;68628;48.714;9.472;2023-06-19T06:22:42;97901.13;;;22.67;53.95
79198;BME280;68628;48.714;9.472;2023-06-19T06:25:14;97907.91;;;22.85;53.68
79198;BME280;68628;48.714;9.472;2023-06-19T06:27:43;97903.66;;;22.99;53.07
79198;BME280;68628;48.714;9.472;2023-06-19T06:30:10;97901.94;;;23.41;52.13
79198;BME280;68628;48.714;9.472;2023-06-19T06:32:37;97900.59;;;23.38;52.23
79198;BME280;68628;48.714;9.472;2023-06-19T06:35:03;97905.19;;;23.58;51.67
79198;BME280;68628;48.714;9.472;2023-06-19T06:37:29;97901.19;;;24.12;50.27
79198;BME280;68628;48.714;9.472;2023-06-19T06:39:55;97907.59;;;24.42;48.54
79198;BME280;68628;48.714;9.472;2023-06-19T06:42:20;97914.91;;;24.16;50.40
79198;BME280;68628;48.714;9.472;2023-06-19T06:44:46;97926.47;;;23.86;50.16
79198;BME280;68628;48.714;9.472;2023-06-19T06:47:12;97926.16;;;23.61;51.93
79198;BME280;68628;48.714;9.472;2023-06-19T06:49:38;97931.84;;;23.75;50.99
79198;BME280;68628;48.714;9.472;2023-06-19T06:52:04;97934.56;;;23.91;50.99
79198;BME280;68628;48.714;9.472;2023-06-19T06:54:31;97934.53;;;23.81;50.84
79198;BME280;68628;48.714;9.472;2023-06-19T06:56:56;97935.88;;;24.09;50.86
79198;BME280;68628;48.714;9.472;2023-06-19T06:59:24;97945.03;;;24.18;50.21
79198;BME280;68628;48.714;9.472;2023-06-19T07:01:50;97934.50;;;25.28;48.39
79198;BME280;68628;48.714;9.472;2023-06-19T07:04:16;97934.03;;;25.11;47.60
79198;BME280;68628;48.714;9.472;2023-06-19T07:06:42;97934.25;;;24.44;49.23
79198;BME280;68628;48.714;9.472;2023-06-19T07:09:07;97937.75;;;25.25;47.44
79198;BME280;68628;48.714;9.472;2023-06-19T07:11:33;97941.03;;;25.67;45.92
79198;BME280;68628;48.714;9.472;2023-06-19T07:13:59;97944.38;;;25.54;46.25
79198;BME280;68628;48.714;9.472;2023-06-19T07:16:24;97956.78;;;24.84;48.24
79198;BME280;68628;48.714;9.472;2023-06-19T07:18:50;97944.66;;;24.87;48.51
79198;BME280;68628;48.714;9.472;2023-06-19T07:21:15;97940.34;;;24.81;48.82
79198;BME280;68628;48.714;9.472;2023-06-19T07:23:42;97947.81;;;25.04;48.83
79198;BME280;68628;48.714;9.472;2023-06-19T07:26:10;97947.13;;;24.57;49.51
79198;BME280;68628;48.714;9.472;2023-06-19T07:28:36;97941.81;;;24.21;50.72
79198;BME280;68628;48.714;9.472;2023-06-19T07:31:03;97941.00;;;24.36;51.05
79198;BME280;68628;48.714;9.472;2023-06-19T07:33:29;97939.06;;;24.47;51.42
79198;BME280;68628;48.714;9.472;2023-06-19T07:35:55;97936.38;;;24.57;49.89
79198;BME280;68628;48.714;9.472;2023-06-19T07:38:22;97938.22;;;24.77;50.12
79198;BME280;68628;48.714;9.472;2023-06-19T07:40:47;97930.25;;;25.12;48.68
79198;BME280;68628;48.714;9.472;2023-06-19T07:43:13;97932.34;;;25.25;48.03
79198;BME280;68628;48.714;9.472;2023-06-19T07:45:42;97922.06;;;25.43;47.60
79198;BME280;68628;48.714;9.472;2023-06-19T07:48:07;97917.47;;;25.78;46.46
79198;BME280;68628;48.714;9.472;2023-06-19T07:50:33;97925.66;;;27.29;44.13
79198;BME280;68628;48.714;9.472;2023-06-19T07:52:58;97930.00;;;27.68;43.85
79198;BME280;68628;48.714;9.472;2023-06-19T07:55:24;97923.44;;;28.07;41.40
79198;BME280;68628;48.714;9.472;2023-06-19T07:57:50;97921.91;;;28.62;41.04
79198;BME280;68628;48.714;9.472;2023-06-19T08:00:17;97926.06;;;28.73;38.82
79198;BME280;68628;48.714;9.472;2023-06-19T08:02:43;97928.53;;;29.11;39.29
79198;BME280;68628;48.714;9.472;2023-06-19T08:05:10;97939.38;;;28.55;39.22
79198;BME280;68628;48.714;9.472;2023-06-19T08:07:36;97944.28;;;28.53;38.78
79198;BME280;68628;48.714;9.472;2023-06-19T08:10:02;97940.66;;;27.40;41.55
79198;BME280;68628;48.714;9.472;2023-06-19T08:12:29;97935.81;;;26.69;43.68
79198;BME280;68628;48.714;9.472;2023-06-19T08:14:55;97939.47;;;26.30;44.63
79198;BME280;68628;48.714;9.472;2023-06-19T08:17:21;97938.28;;;26.66;43.94
79198;BME280;68628;48.714;9.472;2023-06-19T08:19:47;97942.97;;;25.96;45.14
79198;BME280;68628;48.714;9.472;2023-06-19T08:22:13;97934.50;;;25.78;45.31
79198;BME280;68628;48.714;9.472;2023-06-19T08:24:38;97929.81;;;25.89;45.21
79198;BME280;68628;48.714;9.472;2023-06-19T08:27:06;97932.06;;;25.77;45.58
79198;BME280;68628;48.714;9.472;2023-06-19T08:29:33;97937.03;;;26.28;44.42
79198;BME280;68628;48.714;9.472;2023-06-19T08:31:58;97928.47;;;26.75;43.78
79198;BME280;68628;48.714;9.472;2023-06-19T08:34:24;97928.34;;;27.09;43.25
79198;BME280;68628;48.714;9.472;2023-06-19T08:36:51;97925.59;;;26.90;42.41
79198;BME280;68628;48.714;9.472;2023-06-19T08:39:17;97927.28;;;26.62;43.52
79198;BME280;68628;48.714;9.472;2023-06-19T08:41:42;97923.03;;;27.23;42.50
79198;BME280;68628;48.714;9.472;2023-06-19T08:44:08;97917.25;;;27.49;41.50
79198;BME280;68628;48.714;9.472;2023-06-19T08:46:35;97916.47;;;27.68;40.76
79198;BME280;68628;48.714;9.472;2023-06-19T08:49:03;97904.72;;;28.52;39.12
79198;BME280;68628;48.714;9.472;2023-06-19T08:51:31;97903.31;;;29.84;35.96
79198;BME280;68628;48.714;9.472;2023-06-19T08:54:03;97915.13;;;28.78;37.49
79198;BME280;68628;48.714;9.472;2023-06-19T08:56:31;97908.28;;;28.81;37.52
79198;BME280;68628;48.714;9.472;2023-06-19T08:59:11;97912.66;;;28.35;37.40
79198;BME280;68628;48.714;9.472;2023-06-19T09:01:38;97900.97;;;29.32;35.33
79198;BME280;68628;48.714;9.472;2023-06-19T09:04:12;97910.22;;;29.17;34.97
79198;BME280;68628;48.714;9.472;2023-06-19T09:06:52;97905.75;;;28.56;37.10
79198;BME280;68628;48.714;9.472;2023-06-19T09:09:23;97915.19;;;28.45;36.33
79198;BME280;68628;48.714;9.472;2023-06-19T09:12:06;97905.56;;;28.06;37.82
79198;BME280;68628;48.714;9.472;2023-06-19T09:14:41;97910.81;;;28.02;38.13
79198;BME280;68628;48.714;9.472;2023-06-19T09:17:19;97899.22;;;28.85;36.87
79198;BME280;68628;48.714;9.472;2023-06-19T09:19:54;97893.78;;;28.57;36.67
79198;BME280;68628;48.714;9.472;2023-06-19T09:22:22;97904.44;;;28.96;36.58
79198;BME280;68628;48.714;9.472;2023-06-19T09:24:50;97899.22;;;28.57;37.19
79198;BME280;68628;48.714;9.472;2023-06-19T09:27:17;97901.28;;;28.66;37.26
79198;BME280;68628;48.714;9.472;2023-06-19T09:29:46;97901.38;;;29.84;35.55
79198;BME280;68628;48.714;9.472;2023-06-19T09:32:24;97905.03;;;28.37;38.02
79198;BME280;68628;48.714;9.472;2023-06-19T09:34:53;97902.81;;;29.08;36.89
79198;BME280;68628;48.714;9.472;2023-06-19T09:37:28;97911.50;;;29.70;36.49
79198;BME280;68628;48.714;9.472;2023-06-19T09:40:02;97901.19;;;30.26;35.47
79198;BME280;68628;48.714;9.472;2023-06-19T09:42:43;97905.56;;;30.45;35.46
79198;BME280;68628;48.714;9.472;2023-06-19T09:45:11;97899.78;;;29.24;35.95
79198;BME280;68628;48.714;9.472;2023-06-19T09:47:45;97897.72;;;30.83;33.58
79198;BME280;68628;48.714;9.472;2023-06-19T09:50:16;97897.47;;;30.53;33.74
79198;BME280;68628;48.714;9.472;2023-06-19T09:52:43;97886.13;;;30.60;34.22
79198;BME280;68628;48.714;9.472;2023-06-19T09:55:11;97899.63;;;30.42;34.62
79198;BME280;68628;48.714;9.472;2023-06-19T09:57:40;97893.66;;;31.73;33.01
79198;BME280;68628;48.714;9.472;2023-06-19T10:00:08;97889.50;;;31.15;33.75
79198;BME280;68628;48.714;9.472;2023-06-19T10:02:42;97886.03;;;32.62;31.51
79198;BME280;68628;48.714;9.472;2023-06-19T10:05:10;97892.34;;;31.88;31.42
79198;BME280;68628;48.714;9.472;2023-06-19T10:07:45;97879.47;;;29.81;34.45
79198;BME280;68628;48.714;9.472;2023-06-19T10:10:23;97882.03;;;30.08;34.84
79198;BME280;68628;48.714;9.472;2023-06-19T10:12:50;97883.44;;;29.97;35.47
79198;BME280;68628;48.714;9.472;2023-06-19T10:17:50;97886.03;;;30.34;34.62
79198;BME280;68628;48.714;9.472;2023-06-19T10:20:21;97880.41;;;29.99;34.70
79198;BME280;68628;48.714;9.472;2023-06-19T10:23:18;97882.63;;;30.60;34.96
79198;BME280;68628;48.714;9.472;2023-06-19T10:25:48;97887.91;;;30.65;34.13
79198;BME280;68628;48.714;9.472;2023-06-19T10:28:24;97886.16;;;29.97;34.24
79198;BME280;68628;48.714;9.472;2023-06-19T10:31:03;97875.88;;;29.71;35.39
79198;BME280;68628;48.714;9.472;2023-06-19T10:33:33;97881.50;;;30.61;34.56
79198;BME280;68628;48.714;9.472;2023-06-19T10:36:22;97887.41;;;31.20;32.24
79198;BME280;68628;48.714;9.472;2023-06-19T10:38:50;97877.81;;;33.21;30.75
79198;BME280;68628;48.714;9.472;2023-06-19T10:41:24;97869.06;;;33.70;29.75
79198;BME280;68628;48.714;9.472;2023-06-19T10:43:56;97868.41;;;32.89;30.31
79198;BME280;68628;48.714;9.472;2023-06-19T10:46:24;97868.16;;;32.43;30.35
79198;BME280;68628;48.714;9.472;2023-06-19T10:48:54;97864.16;;;31.58;31.61
79198;BME280;68628;48.714;9.472;2023-06-19T10:51:26;97865.78;;;31.50;32.34
79198;BME280;68628;48.714;9.472;2023-06-19T10:53:54;97857.97;;;30.47;34.03
79198;BME280;68628;48.714;9.472;2023-06-19T10:56:22;97860.16;;;30.45;33.08
79198;BME280;68628;48.714;9.472;2023-06-19T10:59:00;97850.69;;;30.34;33.55
79198;BME280;68628;48.714;9.472;2023-06-19T11:01:32;97851.50;;;29.80;33.44
79198;BME280;68628;48.714;9.472;2023-06-19T11:04:05;97850.31;;;29.86;32.33
79198;BME280;68628;48.714;9.472;2023-06-19T11:06:33;97855.03;;;30.03;33.35
79198;BME280;68628;48.714;9.472;2023-06-19T11:08:59;97841.91;;;31.03;32.32
79198;BME280;68628;48.714;9.472;2023-06-19T11:11:41;97847.44;;;30.63;32.87
79198;BME280;68628;48.714;9.472;2023-06-19T11:14:10;97847.47;;;30.81;32.83
79198;BME280;68628;48.714;9.472;2023-06-19T11:16:45;97846.28;;;30.47;33.33
79198;BME280;68628;48.714;9.472;2023-06-19T11:19:19;97856.81;;;30.48;33.21
79198;BME280;68628;48.714;9.472;2023-06-19T11:21:49;97845.41;;;29.97;33.06
79198;BME280;68628;48.714;9.472;2023-06-19T11:24:17;97854.72;;;30.05;33.56
79198;BME280;68628;48.714;9.472;2023-06-19T11:26:45;97853.19;;;29.45;33.72
79198;BME280;68628;48.714;9.472;2023-06-19T11:29:25;97849.06;;;30.73;32.28
79198;BME280;68628;48.714;9.472;2023-06-19T11:32:06;97844.47;;;31.70;30.20
79198;BME280;68628;48.714;9.472;2023-06-19T11:34:34;97842.44;;;31.32;30.55
79198;BME280;68628;48.714;9.472;2023-06-19T11:37:14;97834.72;;;31.69;30.13
79198;BME280;68628;48.714;9.472;2023-06-19T11:39:43;97840.16;;;31.51;29.77
79198;BME280;68628;48.714;9.472;2023-06-19T11:42:13;97833.25;;;30.75;31.86
79198;BME280;68628;48.714;9.472;2023-06-19T11:44:53;97830.94;;;30.51;31.83
79198;BME280;68628;48.714;9.472;2023-06-19T11:47:18;97828.41;;;30.63;32.66
79198;BME280;68628;48.714;9.472;2023-06-19T11:49:47;97826.81;;;30.62;32.39
79198;BME280;68628;48.714;9.472;2023-06-19T11:52:14;97821.44;;;31.23;30.70
79198;BME280;68628;48.714;9.472;2023-06-19T11:54:40;97828.44;;;31.86;30.72
79198;BME280;68628;48.714;9.472;2023-06-19T11:57:06;97826.09;;;31.32;31.27
79198;BME280;68628;48.714;9.472;2023-06-19T11:59:32;97814.41;;;31.40;32.37
79198;BME280;68628;48.714;9.472;2023-06-19T12:01:58;97812.09;;;30.63;32.79
79198;BME280;68628;48.714;9.472;2023-06-19T12:04:25;97821.59;;;31.45;30.70
79198;BME280;68628;48.714;9.472;2023-06-19T12:06:52;97814.09;;;32.06;30.97
79198;BME280;68628;48.714;9.472;2023-06-19T12:09:18;97813.59;;;31.22;32.36
79198;BME280;68628;48.714;9.472;2023-06-19T12:11:43;97808.13;;;30.87;32.54
79198;BME280;68628;48.714;9.472;2023-06-19T12:14:09;97806.78;;;31.89;31.69
79198;BME280;68628;48.714;9.472;2023-06-19T12:16:35;97809.31;;;32.42;30.59
79198;BME280;68628;48.714;9.472;2023-06-19T12:19:01;97808.53;;;31.94;31.62
79198;BME280;68628;48.714;9.472;2023-06-19T12:21:26;97798.78;;;31.84;30.61
79198;BME280;68628;48.714;9.472;2023-06-19T12:23:52;97809.44;;;31.33;32.02
79198;BME280;68628;48.714;9.472;2023-06-19T12:26:18;97806.78;;;30.49;33.02
79198;BME280;68628;48.714;9.472;2023-06-19T12:28:44;97808.22;;;30.47;33.44
79198;BME280;68628;48.714;9.472;2023-06-19T12:31:10;97798.84;;;30.62;33.04
79198;BME280;68628;48.714;9.472;2023-06-19T12:33:36;97799.94;;;30.20;33.67
79198;BME280;68628;48.714;9.472;2023-06-19T12:36:11;97809.38;;;30.14;33.84
79198;BME280;68628;48.714;9.472;2023-06-19T12:38:41;97799.38;;;30.41;33.11
79198;BME280;68628;48.714;9.472;2023-06-19T12:41:07;97801.03;;;30.51;32.74
79198;BME280;68628;48.714;9.472;2023-06-19T12:43:33;97796.75;;;30.85;32.46
79198;BME280;68628;48.714;9.472;2023-06-19T12:45:59;97799.81;;;31.18;32.40
79198;BME280;68628;48.714;9.472;2023-06-19T12:48:26;97798.66;;;31.72;30.93
79198;BME280;68628;48.714;9.472;2023-06-19T12:50:52;97798.94;;;30.48;33.49
79198;BME280;68628;48.714;9.472;2023-06-19T12:53:18;97790.91;;;30.34;33.58
79198;BME280;68628;48.714;9.472;2023-06-19T12:55:43;97796.91;;;30.13;34.08
79198;BME280;68628;48.714;9.472;2023-06-19T12:58:10;97793.28;;;29.86;35.38
79198;BME280;68628;48.714;9.472;2023-06-19T13:00:36;97792.09;;;30.50;35.12
79198;BME280;68628;48.714;9.472;2023-06-19T13:03:02;97790.81;;;30.56;34.90
79198;BME280;68628;48.714;9.472;2023-06-19T13:05:28;97801.06;;;31.73;33.84
79198;BME280;68628;48.714;9.472;2023-06-19T13:07:54;97790.78;;;32.56;32.23
79198;BME280;68628;48.714;9.472;2023-06-19T13:10:20;97788.13;;;32.69;31.95
79198;BME280;68628;48.714;9.472;2023-06-19T13:12:45;97797.31;;;31.87;31.15
79198;BME280;68628;48.714;9.472;2023-06-19T13:15:11;97782.06;;;31.95;31.64
79198;BME280;68628;48.714;9.472;2023-06-19T13:17:37;97782.59;;;32.86;31.85
79198;BME280;68628;48.714;9.472;2023-06-19T13:20:02;97779.69;;;32.32;31.40
79198;BME280;68628;48.714;9.472;2023-06-19T13:22:30;97792.94;;;31.30;31.83
79198;BME280;68628;48.714;9.472;2023-06-19T13:24:56;97787.97;;;31.49;31.68
79198;BME280;68628;48.714;9.472;2023-06-19T13:27:22;97772.16;;;31.25;31.83
79198;BME280;68628;48.714;9.472;2023-06-19T13:29:48;97771.31;;;30.98;32.77